TC1653 SARI-SBGL
Flight info
| Callsign | TC1653 |
|---|---|
| Flight time | 1h 29m |
| Altitude | FL330 |
| Route | KAMI1G KAMIL UZ28 XONUG UZ121 BUXUK DAMTA UZ42 VUREP |
| Aircraft | B722/M-VD/C |
Departure
| Time | 2026-04-26 19:49 |
|---|---|
| Airport | Cataratas Del Iguazú International Airport (SARI) |
Arrival
| Time | 2026-04-26 21:18 |
|---|---|
| Airport | Rio Galeão – Tom Jobim International Airport (SBGL) |
| Time | Latitude | Longitude | Altitude | Speed | Heading |
|---|---|---|---|---|---|
| 2026-04-26 19:06 | -25.73194 | -54.47754 | 934 ft | 0 kts | 26° |
| 2026-04-26 19:34 | -25.73200 | -54.47757 | 932 ft | 3 kts | 26° |
| 2026-04-26 19:34 | -25.73217 | -54.47767 | 930 ft | 3 kts | 26° |
| 2026-04-26 19:34 | -25.73233 | -54.47775 | 932 ft | 3 kts | 26° |
| 2026-04-26 19:34 | -25.73242 | -54.47781 | 931 ft | 0 kts | 26° |
| 2026-04-26 19:41 | -25.73241 | -54.47780 | 930 ft | 1 kts | 32° |
| 2026-04-26 19:41 | -25.73239 | -54.47778 | 934 ft | 1 kts | 44° |
| 2026-04-26 19:42 | -25.73242 | -54.47757 | 930 ft | 5 kts | 117° |
| 2026-04-26 19:42 | -25.73265 | -54.47708 | 931 ft | 8 kts | 117° |
| 2026-04-26 19:42 | -25.73291 | -54.47651 | 932 ft | 9 kts | 118° |
| 2026-04-26 19:42 | -25.73326 | -54.47596 | 932 ft | 9 kts | 135° |
| 2026-04-26 19:43 | -25.73372 | -54.47550 | 933 ft | 9 kts | 142° |
| 2026-04-26 19:43 | -25.73424 | -54.47510 | 931 ft | 9 kts | 146° |
| 2026-04-26 19:43 | -25.73479 | -54.47469 | 932 ft | 10 kts | 146° |
| 2026-04-26 19:43 | -25.73541 | -54.47422 | 930 ft | 12 kts | 144° |
| 2026-04-26 19:44 | -25.73602 | -54.47373 | 932 ft | 10 kts | 143° |
| 2026-04-26 19:44 | -25.73621 | -54.47358 | 931 ft | 2 kts | 143° |
| 2026-04-26 19:44 | -25.73624 | -54.47355 | 932 ft | 2 kts | 143° |
| 2026-04-26 19:44 | -25.73658 | -54.47327 | 932 ft | 10 kts | 143° |
| 2026-04-26 19:45 | -25.73732 | -54.47264 | 932 ft | 15 kts | 135° |
| 2026-04-26 19:45 | -25.73801 | -54.47165 | 933 ft | 18 kts | 119° |
| 2026-04-26 19:45 | -25.73859 | -54.47034 | 932 ft | 20 kts | 115° |
| 2026-04-26 19:45 | -25.73923 | -54.46881 | 934 ft | 24 kts | 115° |
| 2026-04-26 19:46 | -25.74000 | -54.46706 | 933 ft | 27 kts | 116° |
| 2026-04-26 19:46 | -25.74080 | -54.46507 | 929 ft | 30 kts | 114° |
| 2026-04-26 19:46 | -25.74167 | -54.46301 | 930 ft | 28 kts | 115° |
| 2026-04-26 19:46 | -25.74244 | -54.46111 | 929 ft | 26 kts | 114° |
| 2026-04-26 19:47 | -25.74304 | -54.45955 | 932 ft | 16 kts | 103° |
| 2026-04-26 19:47 | -25.74305 | -54.45917 | 933 ft | 13 kts | 84° |
| 2026-04-26 19:47 | -25.74342 | -54.45860 | 930 ft | 2 kts | 257° |
| 2026-04-26 19:47 | -25.74341 | -54.45867 | 930 ft | 0 kts | 285° |
| 2026-04-26 19:48 | -25.74314 | -54.45945 | 932 ft | 31 kts | 294° |
| 2026-04-26 19:48 | -25.74140 | -54.46364 | 930 ft | 88 kts | 295° |
| 2026-04-26 19:48 | -25.73812 | -54.47149 | 934 ft | 135 kts | 295° |
| 2026-04-26 19:49 | -25.73400 | -54.48168 | 1168 ft | 146 kts | 294° |
| 2026-04-26 19:49 | -25.72987 | -54.49155 | 1708 ft | 136 kts | 292° |
| 2026-04-26 19:49 | -25.72354 | -54.49987 | 1923 ft | 150 kts | 328° |
| 2026-04-26 19:49 | -25.71293 | -54.50354 | 2090 ft | 168 kts | 347° |
| 2026-04-26 19:50 | -25.70132 | -54.50368 | 2539 ft | 170 kts | 0° |
| 2026-04-26 19:50 | -25.68915 | -54.50183 | 2901 ft | 181 kts | 6° |
| 2026-04-26 19:50 | -25.67629 | -54.50052 | 3207 ft | 198 kts | 354° |
| 2026-04-26 19:50 | -25.66201 | -54.50113 | 3461 ft | 213 kts | 353° |
| 2026-04-26 19:51 | -25.64819 | -54.50186 | 4360 ft | 192 kts | 357° |
| 2026-04-26 19:51 | -25.63464 | -54.50033 | 4808 ft | 199 kts | 0° |
| 2026-04-26 19:51 | -25.62075 | -54.49827 | 5218 ft | 208 kts | 17° |
| 2026-04-26 19:51 | -25.60912 | -54.48854 | 5670 ft | 215 kts | 45° |
| 2026-04-26 19:52 | -25.59933 | -54.47586 | 6135 ft | 219 kts | 49° |
| 2026-04-26 19:52 | -25.59122 | -54.46143 | 6571 ft | 224 kts | 60° |
| 2026-04-26 19:52 | -25.58359 | -54.44626 | 6996 ft | 227 kts | 62° |
| 2026-04-26 19:52 | -25.58053 | -54.42894 | 7403 ft | 237 kts | 90° |
| 2026-04-26 19:53 | -25.58107 | -54.41031 | 7861 ft | 249 kts | 93° |
| 2026-04-26 19:53 | -25.58183 | -54.39068 | 8322 ft | 264 kts | 92° |
| 2026-04-26 19:53 | -25.58239 | -54.36975 | 8803 ft | 280 kts | 91° |
| 2026-04-26 19:53 | -25.58250 | -54.34764 | 9282 ft | 297 kts | 91° |
| 2026-04-26 19:54 | -25.58268 | -54.32409 | 9767 ft | 316 kts | 91° |
| 2026-04-26 19:54 | -25.58280 | -54.29883 | 10107 ft | 339 kts | 91° |
| 2026-04-26 19:54 | -25.58294 | -54.27206 | 10456 ft | 360 kts | 91° |
| 2026-04-26 19:54 | -25.58309 | -54.24349 | 10817 ft | 383 kts | 90° |
| 2026-04-26 19:55 | -25.58326 | -54.21319 | 11162 ft | 405 kts | 90° |
| 2026-04-26 19:55 | -25.58342 | -54.18132 | 11514 ft | 427 kts | 90° |
| 2026-04-26 19:55 | -25.58362 | -54.14780 | 11906 ft | 442 kts | 90° |
| 2026-04-26 19:55 | -25.58388 | -54.11338 | 12377 ft | 452 kts | 90° |
| 2026-04-26 19:56 | -25.58417 | -54.07882 | 12868 ft | 449 kts | 90° |
| 2026-04-26 19:56 | -25.58444 | -54.04438 | 13374 ft | 445 kts | 90° |
| 2026-04-26 19:56 | -25.58471 | -54.01045 | 13859 ft | 441 kts | 90° |
| 2026-04-26 19:56 | -25.58462 | -53.97668 | 14312 ft | 438 kts | 89° |
| 2026-04-26 19:57 | -25.58446 | -53.94308 | 14772 ft | 435 kts | 89° |
| 2026-04-26 19:57 | -25.58430 | -53.90963 | 15236 ft | 437 kts | 89° |
| 2026-04-26 19:57 | -25.58413 | -53.87594 | 15710 ft | 440 kts | 89° |
| 2026-04-26 19:57 | -25.58398 | -53.84196 | 16197 ft | 443 kts | 89° |
| 2026-04-26 19:58 | -25.58387 | -53.80785 | 16689 ft | 445 kts | 89° |
| 2026-04-26 19:58 | -25.58347 | -53.77359 | 17191 ft | 447 kts | 85° |
| 2026-04-26 19:58 | -25.57997 | -53.73924 | 17697 ft | 450 kts | 78° |
| 2026-04-26 19:58 | -25.57292 | -53.70552 | 18214 ft | 453 kts | 73° |
| 2026-04-26 19:59 | -25.56544 | -53.67153 | 18654 ft | 457 kts | 74° |
| 2026-04-26 19:59 | -25.55800 | -53.63726 | 19104 ft | 461 kts | 74° |
| 2026-04-26 19:59 | -25.55080 | -53.60263 | 19563 ft | 463 kts | 75° |
| 2026-04-26 19:59 | -25.54364 | -53.56783 | 20022 ft | 465 kts | 75° |
| 2026-04-26 20:00 | -25.53645 | -53.53295 | 20489 ft | 467 kts | 75° |
| 2026-04-26 20:00 | -25.52924 | -53.49792 | 20954 ft | 469 kts | 75° |
| 2026-04-26 20:00 | -25.52198 | -53.46255 | 21336 ft | 473 kts | 75° |
| 2026-04-26 20:00 | -25.51464 | -53.42700 | 21708 ft | 476 kts | 75° |
| 2026-04-26 20:01 | -25.50724 | -53.39136 | 22083 ft | 480 kts | 75° |
| 2026-04-26 20:01 | -25.49973 | -53.35532 | 22467 ft | 483 kts | 75° |
| 2026-04-26 20:01 | -25.49228 | -53.31895 | 22850 ft | 486 kts | 75° |
| 2026-04-26 20:01 | -25.48482 | -53.28247 | 23244 ft | 489 kts | 75° |
| 2026-04-26 20:02 | -25.47732 | -53.24581 | 23607 ft | 491 kts | 75° |
| 2026-04-26 20:02 | -25.46978 | -53.20901 | 23936 ft | 493 kts | 75° |
| 2026-04-26 20:02 | -25.46218 | -53.17202 | 24265 ft | 494 kts | 75° |
| 2026-04-26 20:02 | -25.45967 | -53.15979 | 24376 ft | 495 kts | 75° |
| 2026-04-26 20:03 | -25.44691 | -53.09783 | 24931 ft | 496 kts | 75° |
| 2026-04-26 20:03 | -25.43926 | -53.06076 | 25271 ft | 497 kts | 75° |
| 2026-04-26 20:03 | -25.43156 | -53.02349 | 25622 ft | 498 kts | 75° |
| 2026-04-26 20:03 | -25.42387 | -52.98625 | 25964 ft | 498 kts | 75° |
| 2026-04-26 20:04 | -25.41613 | -52.94887 | 26314 ft | 499 kts | 74° |
| 2026-04-26 20:04 | -25.40839 | -52.91153 | 26671 ft | 499 kts | 74° |
| 2026-04-26 20:04 | -25.40066 | -52.87429 | 27034 ft | 498 kts | 74° |
| 2026-04-26 20:04 | -25.39293 | -52.83701 | 27396 ft | 498 kts | 74° |
| 2026-04-26 20:05 | -25.38521 | -52.79985 | 27762 ft | 497 kts | 74° |
| 2026-04-26 20:05 | -25.37750 | -52.76268 | 28128 ft | 496 kts | 74° |
| 2026-04-26 20:05 | -25.36982 | -52.72574 | 28500 ft | 495 kts | 74° |
| 2026-04-26 20:05 | -25.36214 | -52.68875 | 28897 ft | 493 kts | 74° |
| 2026-04-26 20:06 | -25.35450 | -52.65195 | 29281 ft | 492 kts | 74° |
| 2026-04-26 20:06 | -25.34678 | -52.61526 | 29684 ft | 489 kts | 74° |
| 2026-04-26 20:06 | -25.33904 | -52.57874 | 30076 ft | 488 kts | 74° |
| 2026-04-26 20:06 | -25.33135 | -52.54236 | 30407 ft | 485 kts | 73° |
| 2026-04-26 20:07 | -25.32366 | -52.50630 | 30744 ft | 483 kts | 74° |
| 2026-04-26 20:07 | -25.31608 | -52.47024 | 31032 ft | 482 kts | 73° |
| 2026-04-26 20:07 | -25.30848 | -52.43426 | 31252 ft | 482 kts | 73° |
| 2026-04-26 20:07 | -25.30088 | -52.39826 | 31500 ft | 482 kts | 73° |
| 2026-04-26 20:08 | -25.29330 | -52.36229 | 31734 ft | 482 kts | 74° |
| 2026-04-26 20:08 | -25.28569 | -52.32638 | 31972 ft | 481 kts | 73° |
| 2026-04-26 20:08 | -25.27808 | -52.29055 | 32221 ft | 481 kts | 73° |
| 2026-04-26 20:08 | -25.27044 | -52.25464 | 32465 ft | 480 kts | 73° |
| 2026-04-26 20:09 | -25.26281 | -52.21877 | 32708 ft | 480 kts | 73° |
| 2026-04-26 20:09 | -25.25520 | -52.18303 | 32940 ft | 479 kts | 73° |
| 2026-04-26 20:09 | -25.23973 | -52.11067 | 32948 ft | 490 kts | 73° |
| 2026-04-26 20:10 | -25.22391 | -52.03686 | 32959 ft | 500 kts | 73° |
| 2026-04-26 20:10 | -25.20771 | -51.96152 | 32962 ft | 510 kts | 73° |
| 2026-04-26 20:11 | -25.19112 | -51.88485 | 32968 ft | 519 kts | 73° |
| 2026-04-26 20:12 | -25.16558 | -51.76767 | 32972 ft | 532 kts | 73° |
| 2026-04-26 20:12 | -25.14806 | -51.68778 | 32968 ft | 540 kts | 73° |
| 2026-04-26 20:13 | -25.13030 | -51.60690 | 32970 ft | 547 kts | 74° |
| 2026-04-26 20:13 | -25.11304 | -51.52477 | 32971 ft | 553 kts | 74° |
| 2026-04-26 20:14 | -25.09529 | -51.44198 | 32973 ft | 557 kts | 74° |
| 2026-04-26 20:14 | -25.07737 | -51.35907 | 32965 ft | 557 kts | 74° |
| 2026-04-26 20:15 | -25.05936 | -51.27611 | 32960 ft | 558 kts | 73° |
| 2026-04-26 20:15 | -25.04110 | -51.19327 | 32953 ft | 558 kts | 73° |
| 2026-04-26 20:16 | -25.02279 | -51.11029 | 32951 ft | 558 kts | 73° |
| 2026-04-26 20:16 | -25.00444 | -51.02727 | 32952 ft | 559 kts | 73° |
| 2026-04-26 20:17 | -24.98606 | -50.94416 | 32946 ft | 558 kts | 73° |
| 2026-04-26 20:17 | -24.96774 | -50.86132 | 32949 ft | 559 kts | 73° |
| 2026-04-26 20:18 | -24.94927 | -50.77824 | 32951 ft | 559 kts | 73° |
| 2026-04-26 20:18 | -24.93066 | -50.69536 | 32949 ft | 559 kts | 73° |
| 2026-04-26 20:19 | -24.91181 | -50.61244 | 32949 ft | 559 kts | 73° |
| 2026-04-26 20:19 | -24.89292 | -50.52955 | 32946 ft | 559 kts | 73° |
| 2026-04-26 20:20 | -24.87411 | -50.44661 | 32968 ft | 559 kts | 73° |
| 2026-04-26 20:20 | -24.85536 | -50.36382 | 32956 ft | 558 kts | 73° |
| 2026-04-26 20:21 | -24.83660 | -50.28107 | 32963 ft | 558 kts | 73° |
| 2026-04-26 20:21 | -24.81788 | -50.19847 | 32960 ft | 558 kts | 73° |
| 2026-04-26 20:22 | -24.79912 | -50.11584 | 32976 ft | 557 kts | 72° |
| 2026-04-26 20:22 | -24.78011 | -50.03336 | 32970 ft | 557 kts | 72° |
| 2026-04-26 20:22 | -24.77074 | -49.99261 | 32967 ft | 544 kts | 72° |
| 2026-04-26 20:23 | -24.76151 | -49.95269 | 32965 ft | 535 kts | 72° |
| 2026-04-26 20:23 | -24.74341 | -49.87458 | 32963 ft | 523 kts | 72° |
| 2026-04-26 20:24 | -24.72574 | -49.79798 | 32954 ft | 512 kts | 72° |
| 2026-04-26 20:24 | -24.70851 | -49.72290 | 32945 ft | 503 kts | 72° |
| 2026-04-26 20:25 | -24.69159 | -49.64888 | 32949 ft | 495 kts | 72° |
| 2026-04-26 20:25 | -24.67477 | -49.57613 | 32941 ft | 489 kts | 72° |
| 2026-04-26 20:26 | -24.65817 | -49.50434 | 32943 ft | 482 kts | 72° |
| 2026-04-26 20:26 | -24.64169 | -49.43345 | 32944 ft | 477 kts | 72° |
| 2026-04-26 20:27 | -24.62513 | -49.36364 | 32938 ft | 471 kts | 71° |
| 2026-04-26 20:27 | -24.60852 | -49.29442 | 32933 ft | 467 kts | 71° |
| 2026-04-26 20:28 | -24.59220 | -49.22602 | 32932 ft | 461 kts | 71° |
| 2026-04-26 20:28 | -24.57612 | -49.15844 | 32935 ft | 456 kts | 71° |
| 2026-04-26 20:29 | -24.56020 | -49.09146 | 32920 ft | 452 kts | 71° |
| 2026-04-26 20:29 | -24.54445 | -49.02503 | 32927 ft | 449 kts | 71° |
| 2026-04-26 20:30 | -24.52885 | -48.95905 | 32921 ft | 445 kts | 71° |
| 2026-04-26 20:30 | -24.51340 | -48.89357 | 32923 ft | 446 kts | 71° |
| 2026-04-26 20:31 | -24.49775 | -48.82734 | 32935 ft | 453 kts | 71° |
| 2026-04-26 20:31 | -24.48175 | -48.75990 | 32930 ft | 461 kts | 71° |
| 2026-04-26 20:32 | -24.46542 | -48.69148 | 32925 ft | 468 kts | 71° |
| 2026-04-26 20:32 | -24.44881 | -48.62204 | 32925 ft | 474 kts | 71° |
| 2026-04-26 20:33 | -24.43196 | -48.55175 | 32907 ft | 481 kts | 71° |
| 2026-04-26 20:33 | -24.41493 | -48.48059 | 32911 ft | 486 kts | 71° |
| 2026-04-26 20:34 | -24.39756 | -48.40865 | 32906 ft | 491 kts | 71° |
| 2026-04-26 20:34 | -24.37996 | -48.33606 | 32901 ft | 496 kts | 71° |
| 2026-04-26 20:35 | -24.36210 | -48.26267 | 32898 ft | 501 kts | 71° |
| 2026-04-26 20:35 | -24.34401 | -48.18868 | 32900 ft | 505 kts | 71° |
| 2026-04-26 20:35 | -24.33305 | -48.15247 | 32884 ft | 499 kts | 59° |
| 2026-04-26 20:36 | -24.31374 | -48.12174 | 32905 ft | 484 kts | 39° |
| 2026-04-26 20:36 | -24.28733 | -48.10039 | 32905 ft | 466 kts | 19° |
| 2026-04-26 20:36 | -24.25773 | -48.08680 | 32910 ft | 460 kts | 13° |
| 2026-04-26 20:37 | -24.19713 | -48.06410 | 32908 ft | 464 kts | 14° |
| 2026-04-26 20:37 | -24.13717 | -48.03688 | 32898 ft | 470 kts | 18° |
| 2026-04-26 20:38 | -24.07794 | -48.00617 | 32904 ft | 474 kts | 20° |
| 2026-04-26 20:38 | -24.01884 | -47.97371 | 32905 ft | 477 kts | 20° |
| 2026-04-26 20:39 | -23.95983 | -47.94023 | 32914 ft | 480 kts | 21° |
| 2026-04-26 20:39 | -23.90079 | -47.90621 | 32919 ft | 482 kts | 21° |
| 2026-04-26 20:40 | -23.84152 | -47.87213 | 32918 ft | 484 kts | 21° |
| 2026-04-26 20:40 | -23.78200 | -47.83796 | 32928 ft | 485 kts | 21° |
| 2026-04-26 20:41 | -23.72738 | -47.79443 | 32948 ft | 504 kts | 48° |
| 2026-04-26 20:41 | -23.71046 | -47.76076 | 32958 ft | 515 kts | 66° |
| 2026-04-26 20:41 | -23.70194 | -47.72267 | 32931 ft | 521 kts | 82° |
| 2026-04-26 20:42 | -23.69525 | -47.64413 | 32931 ft | 521 kts | 79° |
| 2026-04-26 20:42 | -23.68420 | -47.56618 | 32942 ft | 522 kts | 78° |
| 2026-04-26 20:43 | -23.67005 | -47.48876 | 32942 ft | 521 kts | 72° |
| 2026-04-26 20:43 | -23.65082 | -47.41276 | 32940 ft | 521 kts | 71° |
| 2026-04-26 20:44 | -23.63139 | -47.33660 | 32946 ft | 522 kts | 71° |
| 2026-04-26 20:44 | -23.61194 | -47.26044 | 32956 ft | 523 kts | 71° |
| 2026-04-26 20:45 | -23.59300 | -47.18395 | 32959 ft | 524 kts | 72° |
| 2026-04-26 20:45 | -23.57409 | -47.10730 | 32952 ft | 525 kts | 71° |
| 2026-04-26 20:46 | -23.55508 | -47.03064 | 32954 ft | 525 kts | 71° |
| 2026-04-26 20:46 | -23.53600 | -46.95385 | 32975 ft | 526 kts | 71° |
| 2026-04-26 20:47 | -23.51690 | -46.87708 | 32977 ft | 526 kts | 71° |
| 2026-04-26 20:47 | -23.49771 | -46.80029 | 32986 ft | 526 kts | 71° |
| 2026-04-26 20:48 | -23.47813 | -46.72365 | 33000 ft | 527 kts | 71° |
| 2026-04-26 20:48 | -23.45849 | -46.64689 | 32988 ft | 527 kts | 71° |
| 2026-04-26 20:49 | -23.43889 | -46.57033 | 32999 ft | 527 kts | 71° |
| 2026-04-26 20:49 | -23.41921 | -46.49360 | 33024 ft | 527 kts | 71° |
| 2026-04-26 20:50 | -23.39956 | -46.41706 | 33012 ft | 526 kts | 71° |
| 2026-04-26 20:50 | -23.38707 | -46.33853 | 33000 ft | 530 kts | 84° |
| 2026-04-26 20:51 | -23.38857 | -46.25840 | 32982 ft | 531 kts | 90° |
| 2026-04-26 20:51 | -23.38818 | -46.17851 | 32977 ft | 529 kts | 86° |
| 2026-04-26 20:52 | -23.38628 | -46.09862 | 32965 ft | 529 kts | 86° |
| 2026-04-26 20:52 | -23.38444 | -46.01867 | 32965 ft | 529 kts | 86° |
| 2026-04-26 20:53 | -23.38260 | -45.93861 | 32984 ft | 529 kts | 86° |
| 2026-04-26 20:53 | -23.38076 | -45.85876 | 32980 ft | 529 kts | 86° |
| 2026-04-26 20:54 | -23.37891 | -45.77869 | 32980 ft | 530 kts | 86° |
| 2026-04-26 20:54 | -23.37706 | -45.69876 | 32961 ft | 530 kts | 86° |
| 2026-04-26 20:55 | -23.37521 | -45.61870 | 32960 ft | 530 kts | 86° |
| 2026-04-26 20:55 | -23.37326 | -45.53874 | 32938 ft | 529 kts | 85° |
| 2026-04-26 20:56 | -23.36257 | -45.46039 | 32959 ft | 523 kts | 72° |
| 2026-04-26 20:56 | -23.34486 | -45.38384 | 32957 ft | 522 kts | 73° |
| 2026-04-26 20:57 | -23.32776 | -45.30718 | 32961 ft | 522 kts | 73° |
| 2026-04-26 20:57 | -23.31096 | -45.23039 | 32959 ft | 522 kts | 74° |
| 2026-04-26 20:58 | -23.29446 | -45.15367 | 32961 ft | 523 kts | 74° |
| 2026-04-26 20:58 | -23.27789 | -45.07686 | 32959 ft | 523 kts | 74° |
| 2026-04-26 20:59 | -23.26120 | -44.99990 | 32941 ft | 523 kts | 74° |
| 2026-04-26 20:59 | -23.24464 | -44.92384 | 32817 ft | 504 kts | 74° |
| 2026-04-26 20:59 | -23.23670 | -44.88734 | 32325 ft | 492 kts | 74° |
| 2026-04-26 21:00 | -23.22892 | -44.85161 | 31831 ft | 481 kts | 74° |
| 2026-04-26 21:00 | -23.22135 | -44.81677 | 31343 ft | 470 kts | 74° |
| 2026-04-26 21:00 | -23.21390 | -44.78272 | 30873 ft | 459 kts | 73° |
| 2026-04-26 21:00 | -23.20657 | -44.74926 | 30386 ft | 451 kts | 74° |
| 2026-04-26 21:01 | -23.19939 | -44.71646 | 29917 ft | 443 kts | 74° |
| 2026-04-26 21:01 | -23.19241 | -44.68437 | 29383 ft | 436 kts | 74° |
| 2026-04-26 21:01 | -23.18540 | -44.65259 | 28850 ft | 429 kts | 74° |
| 2026-04-26 21:01 | -23.17850 | -44.62131 | 28321 ft | 422 kts | 73° |
| 2026-04-26 21:02 | -23.17172 | -44.59062 | 27825 ft | 416 kts | 73° |
| 2026-04-26 21:02 | -23.16442 | -44.56061 | 27326 ft | 408 kts | 69° |
| 2026-04-26 21:02 | -23.15570 | -44.53144 | 26832 ft | 403 kts | 69° |
| 2026-04-26 21:02 | -23.14712 | -44.50275 | 26351 ft | 398 kts | 69° |
| 2026-04-26 21:03 | -23.13679 | -44.47538 | 25874 ft | 387 kts | 54° |
| 2026-04-26 21:03 | -23.12298 | -44.45071 | 25424 ft | 381 kts | 55° |
| 2026-04-26 21:03 | -23.10992 | -44.42584 | 24971 ft | 378 kts | 57° |
| 2026-04-26 21:03 | -23.09747 | -44.40094 | 24523 ft | 375 kts | 58° |
| 2026-04-26 21:04 | -23.08540 | -44.37601 | 24081 ft | 372 kts | 58° |
| 2026-04-26 21:04 | -23.07373 | -44.35116 | 23641 ft | 369 kts | 59° |
| 2026-04-26 21:04 | -23.06224 | -44.32647 | 23164 ft | 366 kts | 59° |
| 2026-04-26 21:04 | -23.05100 | -44.30186 | 22634 ft | 363 kts | 60° |
| 2026-04-26 21:05 | -23.03996 | -44.27737 | 22142 ft | 361 kts | 60° |
| 2026-04-26 21:05 | -23.02900 | -44.25303 | 21645 ft | 358 kts | 60° |
| 2026-04-26 21:05 | -23.01814 | -44.22888 | 21161 ft | 355 kts | 61° |
| 2026-04-26 21:05 | -23.00737 | -44.20487 | 20679 ft | 353 kts | 61° |
| 2026-04-26 21:06 | -22.99673 | -44.18099 | 20223 ft | 351 kts | 61° |
| 2026-04-26 21:06 | -22.98612 | -44.15715 | 19759 ft | 350 kts | 62° |
| 2026-04-26 21:06 | -22.97560 | -44.13354 | 19295 ft | 349 kts | 61° |
| 2026-04-26 21:06 | -22.96505 | -44.10993 | 18849 ft | 346 kts | 62° |
| 2026-04-26 21:07 | -22.95454 | -44.08667 | 18408 ft | 344 kts | 61° |
| 2026-04-26 21:07 | -22.94409 | -44.06346 | 17924 ft | 342 kts | 62° |
| 2026-04-26 21:07 | -22.93379 | -44.04032 | 17409 ft | 340 kts | 62° |
| 2026-04-26 21:07 | -22.92352 | -44.01740 | 16909 ft | 338 kts | 62° |
| 2026-04-26 21:08 | -22.91339 | -43.99444 | 16408 ft | 337 kts | 65° |
| 2026-04-26 21:08 | -22.90437 | -43.97106 | 15914 ft | 336 kts | 66° |
| 2026-04-26 21:08 | -22.89557 | -43.94770 | 15449 ft | 334 kts | 67° |
| 2026-04-26 21:08 | -22.88700 | -43.92435 | 14975 ft | 333 kts | 67° |
| 2026-04-26 21:09 | -22.87846 | -43.90115 | 14509 ft | 332 kts | 67° |
| 2026-04-26 21:09 | -22.86998 | -43.87804 | 14051 ft | 329 kts | 68° |
| 2026-04-26 21:09 | -22.86162 | -43.85503 | 13590 ft | 328 kts | 68° |
| 2026-04-26 21:09 | -22.85325 | -43.83215 | 13082 ft | 326 kts | 67° |
| 2026-04-26 21:10 | -22.84490 | -43.80932 | 12582 ft | 325 kts | 67° |
| 2026-04-26 21:10 | -22.83664 | -43.78671 | 12096 ft | 323 kts | 67° |
| 2026-04-26 21:10 | -22.82837 | -43.76417 | 11610 ft | 321 kts | 67° |
| 2026-04-26 21:10 | -22.82016 | -43.74179 | 11133 ft | 319 kts | 67° |
| 2026-04-26 21:11 | -22.81216 | -43.71984 | 10676 ft | 308 kts | 67° |
| 2026-04-26 21:11 | -22.80441 | -43.69851 | 10198 ft | 303 kts | 67° |
| 2026-04-26 21:11 | -22.79658 | -43.67741 | 9745 ft | 303 kts | 67° |
| 2026-04-26 21:11 | -22.78863 | -43.65619 | 9223 ft | 303 kts | 66° |
| 2026-04-26 21:12 | -22.78074 | -43.63518 | 8749 ft | 303 kts | 66° |
| 2026-04-26 21:12 | -22.77280 | -43.61400 | 8262 ft | 302 kts | 66° |
| 2026-04-26 21:12 | -22.76508 | -43.59294 | 7785 ft | 302 kts | 67° |
| 2026-04-26 21:12 | -22.75739 | -43.57182 | 7311 ft | 302 kts | 66° |
| 2026-04-26 21:13 | -22.74978 | -43.55073 | 6832 ft | 301 kts | 66° |
| 2026-04-26 21:13 | -22.74224 | -43.52971 | 6393 ft | 300 kts | 66° |
| 2026-04-26 21:13 | -22.73481 | -43.50875 | 6110 ft | 292 kts | 67° |
| 2026-04-26 21:13 | -22.72768 | -43.48858 | 5784 ft | 287 kts | 67° |
| 2026-04-26 21:14 | -22.72056 | -43.46850 | 5353 ft | 285 kts | 67° |
| 2026-04-26 21:14 | -22.71344 | -43.44857 | 4934 ft | 284 kts | 68° |
| 2026-04-26 21:14 | -22.70629 | -43.42870 | 4503 ft | 283 kts | 67° |
| 2026-04-26 21:14 | -22.70145 | -43.40809 | 3825 ft | 290 kts | 91° |
| 2026-04-26 21:15 | -22.70701 | -43.38707 | 2984 ft | 303 kts | 121° |
| 2026-04-26 21:15 | -22.72140 | -43.37086 | 2700 ft | 293 kts | 143° |
| 2026-04-26 21:15 | -22.73776 | -43.35915 | 2628 ft | 272 kts | 147° |
| 2026-04-26 21:15 | -22.75293 | -43.34893 | 2226 ft | 240 kts | 144° |
| 2026-04-26 21:16 | -22.76426 | -43.33719 | 1645 ft | 212 kts | 128° |
| 2026-04-26 21:16 | -22.77222 | -43.32538 | 1420 ft | 177 kts | 121° |
| 2026-04-26 21:16 | -22.77823 | -43.31515 | 1236 ft | 151 kts | 122° |
| 2026-04-26 21:16 | -22.78409 | -43.30605 | 946 ft | 144 kts | 124° |
| 2026-04-26 21:17 | -22.79008 | -43.29702 | 697 ft | 152 kts | 127° |
| 2026-04-26 21:17 | -22.79636 | -43.28802 | 490 ft | 150 kts | 126° |
| 2026-04-26 21:17 | -22.80235 | -43.27869 | 312 ft | 149 kts | 127° |
| 2026-04-26 21:17 | -22.80832 | -43.26970 | 167 ft | 145 kts | 127° |
| 2026-04-26 21:18 | -22.81413 | -43.26100 | 57 ft | 141 kts | 127° |
| 2026-04-26 21:18 | -22.81959 | -43.25290 | 30 ft | 122 kts | 127° |
| 2026-04-26 21:18 | -22.82350 | -43.24707 | 23 ft | 63 kts | 125° |
| 2026-04-26 21:18 | -22.82517 | -43.24450 | 23 ft | 25 kts | 125° |
| 2026-04-26 21:19 | -22.82619 | -43.24298 | 25 ft | 25 kts | 126° |
| 2026-04-26 21:19 | -22.82682 | -43.24233 | 25 ft | 11 kts | 148° |
| 2026-04-26 21:19 | -22.82744 | -43.24198 | 26 ft | 5 kts | 153° |
| 2026-04-26 21:19 | -22.82778 | -43.24179 | 26 ft | 7 kts | 153° |
| 2026-04-26 21:20 | -22.82832 | -43.24151 | 28 ft | 10 kts | 156° |
| 2026-04-26 21:20 | -22.82907 | -43.24114 | 24 ft | 14 kts | 156° |
| 2026-04-26 21:20 | -22.82977 | -43.24083 | 26 ft | 8 kts | 168° |
| 2026-04-26 21:20 | -22.83030 | -43.24088 | 24 ft | 6 kts | 208° |
| 2026-04-26 21:21 | -22.83045 | -43.24097 | 24 ft | 0 kts | 210° |
| 2026-04-26 21:22 | -22.83044 | -43.24097 | 24 ft | 0 kts | 210° |